Time;durP1;ratioP1;P1;durP2;ratioP2;P2;SDS_P1;SDS_P2;PMS_P1;PMS_P2;Temp;Humidity;BMP_temperature;BMP_pressure;BME280_temperature;BME280_humidity;BME280_pressure;Samples;Min_cycle;Max_cycle;Signal;HPM_P1;HPM_P2
2023/09/01 00:04:45;;;;;;;2.00;1.20;;;17.50;93.30;;;16.23;78.37;100226.91;10285463;28;97092;-96
2023/09/01 00:09:50;;;;;;;1.55;0.95;;;17.50;93.30;;;16.22;77.91;100240.53;10285507;28;96768;-96
2023/09/01 00:14:54;;;;;;;4.07;1.30;;;17.50;93.40;;;16.13;78.06;100239.88;10284786;28;96555;-96
2023/09/01 00:19:58;;;;;;;3.67;1.27;;;17.40;93.50;;;16.00;77.98;100247.88;10280452;28;96577;-96
2023/09/01 00:25:03;;;;;;;2.10;1.30;;;17.30;93.50;;;15.85;78.30;100247.22;10282564;28;97541;-95
2023/09/01 00:30:08;;;;;;;2.15;1.40;;;17.10;93.60;;;15.70;78.51;100252.72;10280404;28;96541;-96
2023/09/01 00:35:13;;;;;;;2.97;1.45;;;16.90;93.70;;;15.54;78.66;100240.47;10292768;28;97547;-95
2023/09/01 00:40:17;;;;;;;3.40;1.70;;;16.80;93.90;;;15.38;79.44;100235.44;10262432;28;96600;-95
2023/09/01 00:45:20;;;;;;;2.33;1.40;;;16.60;94.10;;;15.21;80.28;100249.16;10253491;28;96666;-95
2023/09/01 00:50:24;;;;;;;3.38;1.60;;;16.40;94.40;;;15.07;81.17;100251.97;10295655;28;97354;-95
2023/09/01 00:55:29;;;;;;;3.33;1.63;;;16.30;94.70;;;14.89;82.02;100247.09;10241242;28;96650;-96
2023/09/01 01:00:34;;;;;;;4.43;1.50;;;16.10;95.00;;;14.80;83.29;100245.56;10263940;28;96999;-96
2023/09/01 01:06:15;;;;;;;2.20;1.58;;;16.00;95.40;;;14.66;84.21;100256.16;10261435;28;96590;-96
2023/09/01 01:11:50;;;;;;;2.53;1.80;;;15.80;95.70;;;14.58;85.05;100258.16;10268235;28;96568;-96
2023/09/01 01:16:55;;;;;;;2.63;1.53;;;15.80;95.90;;;14.51;85.56;100255.41;10304498;28;97356;-96
2023/09/01 01:22:04;;;;;;;3.60;1.50;;;15.80;96.20;;;14.44;85.77;100263.34;10287616;28;97135;-96
2023/09/01 01:27:07;;;;;;;3.97;1.70;;;15.70;96.20;;;14.39;86.23;100256.91;10303935;28;96610;-96
2023/09/01 01:32:13;;;;;;;2.95;1.63;;;15.60;96.40;;;14.30;86.56;100258.06;10285965;28;96896;-96
2023/09/01 01:38:07;;;;;;;2.22;1.63;;;15.50;96.70;;;14.19;87.17;100262.88;10302095;28;96442;-96
2023/09/01 01:43:16;;;;;;;2.42;1.48;;;15.40;96.90;;;14.11;87.45;100251.50;10270922;28;96987;-96
2023/09/01 01:48:20;;;;;;;2.03;1.52;;;15.40;97.10;;;14.04;87.84;100243.41;10267684;28;97059;-96
2023/09/01 01:53:24;;;;;;;2.00;1.42;;;15.30;97.30;;;13.95;88.56;100254.41;10285322;28;97226;-93
2023/09/01 01:58:27;;;;;;;2.67;1.70;;;15.20;97.50;;;13.90;88.83;100254.94;10303203;28;96857;-94
2023/09/01 02:03:31;;;;;;;2.67;1.65;;;15.20;97.70;;;13.92;89.24;100256.44;10289495;28;97293;-94
2023/09/01 02:08:34;;;;;;;3.70;1.50;;;15.10;97.80;;;13.95;89.09;100273.09;10341148;28;97430;-95
2023/09/01 02:13:38;;;;;;;2.20;1.63;;;15.20;98.00;;;13.93;89.30;100278.63;10295529;28;96493;-96
2023/09/01 02:18:41;;;;;;;3.33;1.88;;;15.20;98.00;;;13.95;89.29;100276.59;10293196;28;96550;-95
2023/09/01 02:23:46;;;;;;;2.35;1.40;;;15.20;98.10;;;13.97;89.27;100274.56;10247652;28;96706;-95
2023/09/01 02:28:50;;;;;;;2.40;1.58;;;15.30;98.30;;;14.01;89.38;100275.84;10271041;28;96450;-95
2023/09/01 02:33:54;;;;;;;3.50;1.70;;;15.30;98.30;;;14.02;89.42;100280.16;10276391;28;96837;-96
2023/09/01 02:38:58;;;;;;;3.28;2.22;;;15.30;98.30;;;13.99;89.32;100285.06;10276454;28;96886;-95
2023/09/01 02:44:02;;;;;;;3.60;2.10;;;15.30;98.40;;;13.97;89.38;100287.91;10275413;28;96790;-95
2023/09/01 02:49:05;;;;;;;3.17;1.70;;;15.30;98.50;;;13.95;89.32;100299.81;10275091;28;97500;-95
2023/09/01 02:54:09;;;;;;;3.05;2.13;;;15.30;98.70;;;13.92;89.63;100296.50;10241049;28;96590;-95
2023/09/01 02:59:13;;;;;;;4.60;2.20;;;15.20;98.70;;;13.86;90.01;100289.25;10286762;28;97038;-96
2023/09/01 03:04:17;;;;;;;2.78;1.80;;;15.10;98.90;;;13.83;89.96;100296.78;10280480;28;96792;-95
2023/09/01 03:09:21;;;;;;;7.32;2.35;;;15.10;99.10;;;13.80;90.49;100299.84;10309697;28;96857;-95
2023/09/01 03:14:24;;;;;;;3.10;2.20;;;15.10;99.20;;;13.73;90.78;100297.06;10298247;28;96453;-95
2023/09/01 03:19:28;;;;;;;3.40;1.87;;;15.00;99.40;;;13.71;91.20;100304.44;10290901;28;96500;-95
2023/09/01 03:24:31;;;;;;;3.35;2.15;;;15.00;99.70;;;13.72;91.73;100311.44;10266000;28;96535;-95
2023/09/01 03:29:35;;;;;;;3.47;1.77;;;15.00;99.90;;;13.76;92.60;100309.25;10298523;28;96478;-95
2023/09/01 03:34:39;;;;;;;2.78;1.90;;;15.10;99.90;;;13.79;92.86;100304.34;10279123;28;97185;-95
2023/09/01 03:39:42;;;;;;;5.18;2.25;;;15.10;99.90;;;13.83;92.77;100310.97;10277385;28;97631;-95
2023/09/01 03:44:46;;;;;;;3.35;2.00;;;15.20;99.90;;;13.87;93.04;100306.09;10290663;28;96986;-94
2023/09/01 03:49:49;;;;;;;3.47;1.75;;;15.20;99.90;;;13.88;93.35;100297.06;10271518;28;96857;-88
2023/09/01 03:54:53;;;;;;;2.90;1.80;;;15.20;99.90;;;13.92;93.75;100309.03;10272119;28;96557;-88
2023/09/01 03:59:57;;;;;;;2.20;1.70;;;15.20;99.90;;;14.01;94.27;100305.22;10287656;28;96920;-89
2023/09/01 04:05:00;;;;;;;3.60;1.55;;;15.30;99.90;;;14.08;94.25;100300.78;10293411;28;98047;-88
2023/09/01 04:10:06;;;;;;;3.72;1.65;;;15.40;99.90;;;14.17;93.82;100299.69;10274145;28;98525;-88
2023/09/01 04:15:10;;;;;;;2.80;1.73;;;15.50;99.90;;;14.24;93.66;100304.25;10258481;28;96654;-88
2023/09/01 04:20:14;;;;;;;3.17;1.77;;;15.50;99.90;;;14.29;93.49;100296.50;10276559;28;97608;-88
2023/09/01 04:25:17;;;;;;;4.07;1.90;;;15.60;99.90;;;14.36;94.15;100311.59;10294401;28;96833;-88
2023/09/01 04:30:21;;;;;;;3.55;1.40;;;15.60;99.90;;;14.46;94.70;100303.28;10272505;28;97303;-88
2023/09/01 04:35:25;;;;;;;4.30;1.83;;;15.70;99.90;;;14.54;94.71;100313.88;10288491;28;96780;-88
2023/09/01 04:40:28;;;;;;;2.15;1.15;;;15.80;99.90;;;14.65;94.97;100305.34;10266730;28;97927;-86
2023/09/01 04:45:32;;;;;;;2.40;1.58;;;15.90;99.90;;;14.78;94.91;100309.16;10260951;28;97067;-87
2023/09/01 04:50:36;;;;;;;2.65;1.38;;;16.00;99.90;;;14.87;94.94;100311.50;10291109;28;96828;-86
2023/09/01 04:55:40;;;;;;;2.05;1.30;;;16.10;99.90;;;14.93;94.66;100309.88;10274818;28;98091;-88
2023/09/01 05:00:44;;;;;;;2.83;1.40;;;16.20;99.90;;;15.00;94.03;100324.16;10264462;28;97075;-88
2023/09/01 05:05:49;;;;;;;3.38;1.73;;;16.30;99.90;;;14.99;93.06;100341.22;10279371;28;96736;-88
2023/09/01 05:10:53;;;;;;;4.47;1.35;;;16.30;99.90;;;14.96;91.95;100341.63;10293995;28;98309;-88
2023/09/01 05:15:58;;;;;;;3.58;1.63;;;16.30;99.90;;;14.96;91.47;100341.63;10273848;28;96746;-87
2023/09/01 05:21:02;;;;;;;4.28;2.20;;;16.20;99.90;;;14.96;91.50;100345.13;10298720;28;97401;-88
2023/09/01 05:26:05;;;;;;;2.47;2.00;;;16.20;99.90;;;14.96;91.32;100334.41;10318615;28;96603;-88
2023/09/01 05:31:09;;;;;;;4.97;2.50;;;16.30;99.90;;;15.03;92.04;100337.13;10291212;28;98159;-88
2023/09/01 05:36:13;;;;;;;3.40;2.20;;;16.30;99.90;;;15.11;92.74;100333.50;10288389;28;96846;-88
2023/09/01 05:41:16;;;;;;;6.57;2.60;;;16.40;99.90;;;15.27;93.38;100346.59;10266245;28;96855;-87
2023/09/01 05:46:20;;;;;;;3.70;2.30;;;16.60;99.90;;;15.38;94.00;100342.56;10269785;28;96568;-87
2023/09/01 05:51:24;;;;;;;4.43;2.50;;;16.70;99.90;;;15.52;94.26;100346.97;10268920;28;98781;-88
2023/09/01 05:56:28;;;;;;;4.10;2.22;;;16.80;99.90;;;15.66;94.39;100348.75;10290248;28;97543;-86
2023/09/01 06:01:36;;;;;;;5.72;2.70;;;17.00;99.90;;;15.81;94.41;100345.09;10289099;28;98475;-86
2023/09/01 06:06:40;;;;;;;4.57;2.33;;;17.10;99.90;;;15.92;94.56;100340.00;10268356;28;97275;-86
2023/09/01 06:11:44;;;;;;;2.92;2.00;;;17.20;99.90;;;16.06;93.88;100348.94;10268939;28;96806;-86
2023/09/01 06:16:50;;;;;;;3.05;2.00;;;17.40;99.90;;;16.20;93.46;100341.78;10286670;28;96758;-89
2023/09/01 06:21:55;;;;;;;3.05;2.08;;;17.50;99.90;;;16.31;93.31;100325.09;10261790;28;96695;-87
2023/09/01 06:26:59;;;;;;;3.47;1.60;;;17.60;99.90;;;16.44;92.75;100324.31;10264714;28;98610;-88
2023/09/01 06:32:03;;;;;;;3.58;1.50;;;17.70;99.90;;;16.66;92.16;100333.00;10262134;28;97413;-88
2023/09/01 06:37:06;;;;;;;5.55;2.10;;;17.90;99.90;;;16.91;92.15;100330.59;10286296;28;96834;-88
2023/09/01 06:42:10;;;;;;;3.22;1.80;;;18.20;99.90;;;17.20;91.29;100332.84;10251652;28;98342;-91
2023/09/01 06:47:14;;;;;;;2.72;1.80;;;18.50;99.90;;;17.46;90.03;100333.88;10266296;28;98381;-92
2023/09/01 06:52:18;;;;;;;3.97;1.50;;;18.80;99.90;;;17.82;89.12;100344.97;10254333;28;96714;-90
2023/09/01 06:57:21;;;;;;;3.83;1.45;;;19.10;99.90;;;18.09;86.06;100352.94;10281596;28;98337;-88
2023/09/01 07:02:25;;;;;;;2.97;1.65;;;19.40;99.90;;;18.38;84.02;100354.25;10286662;28;98226;-89
2023/09/01 07:07:28;;;;;;;4.13;1.50;;;19.60;99.30;;;18.61;81.67;100359.09;10284163;28;96782;-88
2023/09/01 07:12:32;;;;;;;6.72;1.73;;;19.90;98.80;;;18.87;80.28;100366.19;10269530;28;96600;-88
2023/09/01 07:17:36;;;;;;;2.20;1.20;;;20.10;98.20;;;19.06;78.98;100354.44;10268695;28;98247;-89
2023/09/01 07:22:39;;;;;;;3.47;1.50;;;20.40;97.50;;;19.26;77.77;100367.78;10268361;28;98861;-89
2023/09/01 07:27:43;;;;;;;2.22;1.30;;;20.50;97.10;;;19.37;76.47;100367.06;10272763;28;98661;-88
2023/09/01 07:32:47;;;;;;;4.40;1.50;;;20.70;96.70;;;19.58;75.46;100359.59;10260898;28;97522;-88
2023/09/01 07:37:51;;;;;;;1.95;1.27;;;20.90;96.40;;;19.80;74.95;100363.53;10251249;28;98047;-88
2023/09/01 07:42:54;;;;;;;3.03;1.40;;;21.10;96.10;;;19.96;73.04;100354.81;10285537;28;96981;-89
2023/09/01 07:47:58;;;;;;;3.83;1.70;;;21.30;95.60;;;20.22;73.20;100364.50;10276838;28;96914;-89
2023/09/01 07:53:22;;;;;;;2.13;1.33;;;21.50;95.40;;;20.54;72.10;100364.28;10281596;28;96614;-89
2023/09/01 07:58:25;;;;;;;2.20;1.20;;;21.80;95.10;;;20.69;69.38;100361.16;10295123;28;96648;-89
2023/09/01 08:03:29;;;;;;;2.97;1.38;;;22.00;94.40;;;20.93;69.79;100378.25;10277717;28;97533;-89
2023/09/01 08:08:33;;;;;;;4.18;1.40;;;22.20;94.20;;;21.14;68.69;100382.31;10285337;28;96774;-88
2023/09/01 08:13:37;;;;;;;2.03;1.40;;;22.40;93.50;;;21.16;66.98;100369.38;10269756;28;97607;-87
2023/09/01 08:18:41;;;;;;;2.80;1.10;;;22.50;92.90;;;21.20;66.16;100374.09;10290865;28;97458;-88
2023/09/01 08:23:47;;;;;;;3.03;1.38;;;22.60;92.60;;;21.16;65.19;100372.06;10264580;28;98777;-89
2023/09/01 08:28:51;;;;;;;2.28;1.20;;;22.60;92.30;;;21.08;64.53;100370.53;10264398;28;98521;-88
2023/09/01 08:33:55;;;;;;;1.98;1.25;;;22.50;92.00;;;21.08;65.28;100363.25;10286031;28;97907;-87
2023/09/01 08:38:59;;;;;;;1.75;1.17;;;22.50;91.90;;;21.09;64.24;100367.59;10267933;28;97163;-88
2023/09/01 08:44:08;;;;;;;2.13;1.45;;;22.50;91.50;;;21.08;65.05;100376.78;10266043;28;97326;-88
2023/09/01 08:49:12;;;;;;;4.63;1.20;;;22.50;91.60;;;21.09;64.94;100372.19;10287293;28;98417;-88
2023/09/01 08:54:18;;;;;;;1.85;1.17;;;22.50;91.50;;;21.11;65.29;100367.38;10256442;28;96901;-88
2023/09/01 08:59:24;;;;;;;2.80;1.48;;;22.50;91.50;;;21.16;64.98;100366.66;10259799;28;98456;-88
2023/09/01 09:04:31;;;;;;;3.50;1.77;;;22.50;91.40;;;21.24;64.42;100369.06;10278627;28;98124;-87
2023/09/01 09:09:53;;;;;;;4.53;1.70;;;22.50;91.20;;;21.47;65.74;100352.03;10287487;28;96631;-88
2023/09/01 09:14:56;;;;;;;4.25;1.88;;;22.70;91.40;;;21.78;64.28;100348.13;10270507;28;97108;-88
2023/09/01 09:20:04;;;;;;;3.33;1.80;;;23.00;91.10;;;22.25;64.16;100348.88;10269321;28;97401;-88
2023/09/01 09:25:32;;;;;;;6.13;1.70;;;23.40;91.00;;;22.61;62.47;100347.66;10264570;28;96934;-88
2023/09/01 09:30:36;;;;;;;5.25;1.63;;;23.80;90.60;;;22.90;60.46;100353.03;10283143;28;97435;-89
2023/09/01 09:35:50;;;;;;;2.17;1.50;;;24.10;88.80;;;23.11;58.53;100346.91;10287806;28;98239;-88
2023/09/01 09:41:01;;;;;;;2.55;1.65;;;24.30;87.60;;;23.37;56.49;100353.53;10289702;28;96628;-87
2023/09/01 09:46:04;;;;;;;2.90;1.90;;;24.60;84.30;;;23.52;56.04;100350.22;10258936;28;97634;-87
2023/09/01 09:51:10;;;;;;;2.47;1.73;;;24.80;84.60;;;23.59;55.10;100345.44;10285299;28;97856;-87
2023/09/01 09:56:19;;;;;;;3.40;1.38;;;24.90;84.00;;;23.71;54.61;100339.94;10267033;28;96952;-89
2023/09/01 10:01:24;;;;;;;2.17;1.10;;;25.00;83.10;;;23.59;53.47;100342.72;10289863;28;96860;-93
2023/09/01 10:06:29;;;;;;;3.40;2.70;;;24.90;81.80;;;23.42;54.10;100350.88;10293187;22;98673;-92
2023/09/01 10:11:32;;;;;;;1.98;1.15;;;24.70;81.90;;;23.41;54.44;100335.69;10308279;28;98176;-92
2023/09/01 10:16:37;;;;;;;1.58;1.20;;;24.70;82.20;;;23.59;54.88;100336.47;10281534;28;97063;-91
2023/09/01 10:21:42;;;;;;;2.22;1.33;;;24.80;82.20;;;23.70;54.07;100332.88;10293906;28;98395;-92
2023/09/01 10:27:08;;;;;;;1.40;1.10;;;24.90;81.60;;;23.67;53.59;100331.47;10280665;28;96602;-93
2023/09/01 10:32:19;;;;;;;1.60;1.10;;;25.00;81.10;;;23.74;52.62;100339.41;10297185;28;96615;-91
2023/09/01 10:37:33;;;;;;;2.30;1.90;;;25.00;80.30;;;23.77;53.10;100323.47;10290453;28;96756;-91
2023/09/01 10:42:48;;;;;;;1.88;1.25;;;25.10;79.60;;;23.83;51.84;100323.53;10308157;28;96718;-91
2023/09/01 10:47:53;;;;;;;1.30;1.08;;;25.10;79.30;;;23.86;51.47;100317.59;10298501;28;97153;-91
2023/09/01 10:53:31;;;;;;;1.73;1.00;;;25.10;77.90;;;23.87;50.29;100317.38;10296909;28;96615;-92
2023/09/01 10:58:44;;;;;;;2.58;1.48;;;25.20;77.30;;;23.97;50.62;100322.06;10293407;28;97162;-91
2023/09/01 11:03:47;;;;;;;1.33;1.00;;;25.20;77.40;;;24.12;49.02;100316.03;10312638;28;97128;-91
2023/09/01 11:09:02;;;;;;;1.77;1.38;;;25.40;76.00;;;24.15;48.57;100313.59;10325107;28;96656;-92
2023/09/01 11:14:06;;;;;;;1.83;1.40;;;25.40;74.30;;;24.18;48.68;100315.00;10321308;28;97361;-92
2023/09/01 11:19:09;;;;;;;2.30;1.30;;;25.40;75.00;;;24.14;48.22;100311.97;10299231;28;98907;-91
2023/09/01 11:24:19;;;;;;;2.28;1.10;;;25.40;73.70;;;24.08;48.04;100318.41;10316660;28;96913;-90
2023/09/01 11:29:23;;;;;;;3.38;1.35;;;25.30;73.30;;;24.09;49.27;100311.91;10313297;28;98446;-91
2023/09/01 11:34:38;;;;;;;3.97;2.30;;;25.30;74.40;;;24.10;48.54;100305.38;10311681;28;97501;-92
2023/09/01 11:39:41;;;;;;;2.20;1.40;;;25.30;74.60;;;24.12;48.19;100299.72;10292330;28;97798;-90
2023/09/01 11:44:45;;;;;;;2.13;1.20;;;25.40;73.60;;;24.28;47.81;100304.22;10318843;28;96548;-91
2023/09/01 11:49:49;;;;;;;3.25;1.45;;;25.40;72.80;;;24.52;46.54;100285.75;10312756;28;98387;-90
2023/09/01 11:54:52;;;;;;;2.00;1.23;;;25.70;71.80;;;24.72;46.40;100294.09;10304206;28;96681;-91
2023/09/01 11:59:56;;;;;;;3.45;0.90;;;26.00;71.50;;;24.97;46.54;100290.75;10291053;28;97810;-93
2023/09/01 12:05:00;;;;;;;7.85;4.97;;;26.10;71.40;;;25.13;46.24;100293.59;10291557;28;96724;-91
2023/09/01 12:10:24;;;;;;;2.63;1.90;;;26.30;71.30;;;25.24;44.88;100292.59;10311855;28;97505;-89
2023/09/01 12:15:28;;;;;;;2.08;1.40;;;26.40;69.80;;;25.40;45.55;100285.34;10328085;28;96559;-89
2023/09/01 12:20:31;;;;;;;1.75;1.35;;;26.50;70.20;;;25.64;45.63;100289.28;10305143;28;97619;-90
2023/09/01 12:25:35;;;;;;;1.50;1.10;;;26.80;70.00;;;25.65;44.75;100277.31;10289780;28;97056;-92
2023/09/01 12:30:39;;;;;;;3.78;2.03;;;27.00;69.30;;;25.65;45.35;100287.38;10298549;28;97941;-92
2023/09/01 12:35:42;;;;;;;1.23;1.00;;;26.90;69.40;;;25.54;45.29;100276.44;10290491;28;98150;-91
2023/09/01 12:40:47;;;;;;;1.25;1.00;;;26.90;69.20;;;25.47;44.45;100281.31;10312982;28;98123;-91
2023/09/01 12:45:51;;;;;;;1.48;1.05;;;26.80;68.70;;;25.51;44.96;100279.69;10298506;28;98767;-91
2023/09/01 12:50:55;;;;;;;4.18;2.03;;;26.70;68.70;;;25.70;45.32;100263.72;10302059;28;97467;-92
2023/09/01 12:55:59;;;;;;;2.08;1.30;;;26.90;68.90;;;25.92;44.88;100281.81;10287288;28;98044;-91
2023/09/01 13:01:04;;;;;;;2.50;1.75;;;27.10;68.90;;;25.78;44.58;100259.69;10304311;28;98069;-91
2023/09/01 13:06:10;;;;;;;1.48;0.80;;;27.10;68.30;;;25.58;43.47;100254.97;10291122;28;98237;-91
2023/09/01 13:11:16;;;;;;;1.30;0.98;;;26.90;67.40;;;25.51;44.80;100248.97;10295722;28;97870;-91
2023/09/01 13:16:19;;;;;;;1.60;1.20;;;26.70;67.90;;;25.46;44.22;100255.19;10288970;28;98504;-91
2023/09/01 13:21:23;;;;;;;4.40;1.17;;;26.60;67.20;;;25.40;43.85;100266.31;10272279;28;96826;-91
2023/09/01 13:26:27;;;;;;;1.27;0.80;;;26.60;67.30;;;25.53;44.64;100249.50;10289584;28;98735;-90
2023/09/01 13:31:31;;;;;;;1.00;0.90;;;26.60;67.70;;;25.59;44.40;100243.81;10283672;28;99501;-91
2023/09/01 13:36:34;;;;;;;1.73;1.00;;;26.70;67.10;;;25.52;43.55;100245.97;10285016;28;96705;-91
2023/09/01 13:41:38;;;;;;;3.90;1.23;;;26.80;66.50;;;25.42;43.98;100234.22;10292241;28;98399;-90
2023/09/01 13:46:41;;;;;;;1.17;0.93;;;26.60;66.70;;;25.50;44.42;100241.88;10295246;28;97968;-91
2023/09/01 13:51:45;;;;;;;1.08;0.75;;;26.60;67.20;;;25.52;42.92;100239.72;10305728;28;96827;-90
2023/09/01 13:56:49;;;;;;;1.65;1.15;;;26.70;66.00;;;25.65;43.06;100228.31;10295472;28;96772;-92
2023/09/01 14:01:52;;;;;;;1.42;0.90;;;26.80;66.10;;;25.69;42.18;100239.50;10297718;28;97128;-91
2023/09/01 14:06:56;;;;;;;1.90;1.10;;;26.90;64.70;;;25.63;42.45;100233.22;10291695;28;97084;-92
2023/09/01 14:12:03;;;;;;;2.25;0.95;;;26.80;64.80;;;25.60;42.58;100236.47;10279770;28;97040;-91
2023/09/01 14:17:06;;;;;;;2.55;1.13;;;26.80;65.10;;;25.57;42.95;100228.84;10278387;28;96870;-91
2023/09/01 14:22:10;;;;;;;1.83;1.25;;;26.80;65.20;;;25.60;43.50;100234.56;10280335;28;96759;-92
2023/09/01 14:27:14;;;;;;;1.35;0.93;;;26.70;65.80;;;25.59;43.19;100237.56;10308965;28;98726;-92
2023/09/01 14:32:17;;;;;;;1.58;0.80;;;26.80;65.50;;;25.58;42.84;100222.31;10290060;28;97421;-91
2023/09/01 14:37:22;;;;;;;1.85;0.90;;;26.80;65.00;;;25.91;43.81;100214.81;10292586;28;96681;-91
2023/09/01 14:42:26;;;;;;;0.82;0.70;;;27.10;65.60;;;26.74;42.80;100217.34;10277735;28;96999;-91
2023/09/01 14:47:29;;;;;;;1.60;1.15;;;28.10;65.60;;;27.51;40.22;100205.16;10293968;28;96731;-89
2023/09/01 14:52:36;;;;;;;1.38;0.93;;;29.40;62.30;;;27.62;38.64;100216.88;10308968;28;98295;-90
2023/09/01 14:57:39;;;;;;;1.90;0.90;;;29.40;59.90;;;27.26;38.73;100221.66;10329307;28;96735;-91
2023/09/01 15:02:43;;;;;;;1.10;0.88;;;28.90;59.90;;;26.96;39.70;100215.16;10290610;28;98331;-91
2023/09/01 15:07:47;;;;;;;1.42;0.80;;;28.40;60.80;;;27.23;39.91;100208.53;10271947;28;100599;-90
2023/09/01 15:12:51;;;;;;;2.63;0.90;;;28.70;61.10;;;27.27;39.84;100201.44;10274749;28;96610;-90
2023/09/01 15:17:54;;;;;;;1.58;1.05;;;28.80;60.60;;;27.10;40.04;100196.31;10285590;28;98859;-92
2023/09/01 15:22:58;;;;;;;1.38;1.00;;;28.60;60.80;;;26.80;41.03;100198.00;10310981;28;97352;-92
2023/09/01 15:28:03;;;;;;;1.42;0.90;;;28.20;61.50;;;26.71;40.88;100199.66;10288477;28;98476;-90
2023/09/01 15:33:06;;;;;;;1.35;0.80;;;28.10;61.40;;;26.75;41.11;100194.44;10290722;28;98592;-90
2023/09/01 15:38:10;;;;;;;39.30;24.75;;;28.10;61.90;;;27.10;41.43;100205.31;10278475;28;98385;-90
2023/09/01 15:43:14;;;;;;;6.97;4.80;;;28.40;62.10;;;27.31;41.33;100197.91;10290306;28;96629;-90
2023/09/01 15:48:18;;;;;;;4.75;1.67;;;28.80;62.20;;;27.20;40.64;100199.84;10294903;28;96642;-91
2023/09/01 15:53:22;;;;;;;1.33;1.08;;;28.70;61.50;;;26.93;41.00;100202.91;10275369;28;98275;-90
2023/09/01 15:58:27;;;;;;;2.20;0.90;;;28.30;61.90;;;26.57;41.77;100199.41;10320337;28;96619;-90
2023/09/01 16:03:30;;;;;;;1.17;0.90;;;28.00;62.10;;;26.24;42.09;100202.63;10287910;28;97354;-90
2023/09/01 16:08:44;;;;;;;1.83;0.77;;;27.50;62.50;;;25.80;42.37;100206.66;10315090;28;96954;-91
2023/09/01 16:13:49;;;;;;;1.85;0.90;;;27.10;63.30;;;25.46;42.67;100210.84;10292935;28;98303;-91
2023/09/01 16:18:53;;;;;;;1.75;1.08;;;26.70;63.50;;;25.26;43.23;100208.88;10290615;28;97725;-91
2023/09/01 16:23:56;;;;;;;2.78;0.98;;;26.40;63.90;;;25.09;44.06;100201.69;10304006;28;97335;-90
2023/09/01 16:29:00;;;;;;;3.60;1.90;;;26.20;64.40;;;24.92;44.31;100197.47;10295732;28;98484;-90
2023/09/01 16:34:10;;;;;;;1.58;1.13;;;26.10;64.70;;;24.87;45.16;100213.75;10308676;28;98631;-90
2023/09/01 16:39:14;;;;;;;2.50;1.15;;;26.00;65.30;;;24.72;46.01;100215.31;10291994;28;97430;-90
2023/09/01 16:44:17;;;;;;;2.67;1.13;;;25.80;66.00;;;24.53;46.75;100216.78;10287310;28;97086;-90
2023/09/01 16:49:21;;;;;;;2.08;1.08;;;25.60;67.10;;;24.28;47.85;100212.72;10300279;28;97259;-89
2023/09/01 16:54:25;;;;;;;2.28;1.20;;;25.40;68.10;;;24.07;48.49;100212.81;10320788;28;97698;-90
2023/09/01 16:59:28;;;;;;;3.40;1.90;;;25.20;69.00;;;23.86;49.51;100217.19;10296760;28;98085;-90
2023/09/01 17:04:32;;;;;;;3.88;1.67;;;24.90;69.80;;;23.54;50.38;100214.34;10298382;28;97431;-90
2023/09/01 17:09:36;;;;;;;2.38;1.20;;;24.70;70.80;;;23.27;51.88;100208.84;10289016;28;99216;-90
2023/09/01 17:14:40;;;;;;;2.63;1.30;;;24.50;71.90;;;23.06;52.72;100224.84;10288822;28;97520;-90
2023/09/01 17:19:43;;;;;;;2.53;1.40;;;24.20;72.60;;;22.71;53.69;100217.78;10284657;28;97523;-90
2023/09/01 17:24:47;;;;;;;2.85;1.90;;;24.00;73.30;;;22.52;54.44;100237.25;10289673;28;98645;-90
2023/09/01 17:29:50;;;;;;;3.85;2.00;;;23.70;73.90;;;22.26;55.16;100230.59;10310201;28;98536;-89
2023/09/01 17:34:54;;;;;;;2.40;1.70;;;23.50;74.60;;;22.00;55.85;100231.97;10303810;28;97632;-90
2023/09/01 17:39:58;;;;;;;3.92;1.73;;;23.20;75.20;;;21.83;56.61;100240.03;10277865;28;98679;-90
2023/09/01 17:45:06;;;;;;;2.03;1.35;;;23.00;75.70;;;21.65;57.10;100251.84;10279162;28;97047;-89
2023/09/01 17:50:11;;;;;;;1.27;0.95;;;22.90;76.20;;;21.50;57.75;100255.06;10298372;28;97357;-90
2023/09/01 17:55:15;;;;;;;1.85;1.30;;;22.70;76.50;;;21.38;58.21;100254.25;10297169;28;96819;-90
2023/09/01 18:00:19;;;;;;;1.85;1.15;;;22.50;77.10;;;21.17;58.89;100263.78;10287584;28;96580;-89
2023/09/01 18:05:23;;;;;;;2.22;1.60;;;22.40;77.50;;;21.09;59.12;100267.63;10290916;28;98828;-90
2023/09/01 18:10:26;;;;;;;2.10;1.65;;;22.30;78.00;;;20.99;59.56;100272.81;10306928;28;96650;-90
2023/09/01 18:15:31;;;;;;;2.03;1.70;;;22.20;78.30;;;20.83;60.18;100276.19;10289325;28;98128;-90
2023/09/01 18:20:38;;;;;;;1.67;1.20;;;22.00;78.70;;;20.69;60.54;100280.16;10311517;28;96809;-90
2023/09/01 18:25:42;;;;;;;1.60;1.20;;;21.90;79.20;;;20.62;61.09;100291.06;10294546;28;97771;-90
2023/09/01 18:30:49;;;;;;;2.92;1.10;;;21.80;79.90;;;20.48;62.05;100289.63;10310567;28;96784;-90
2023/09/01 18:35:59;;;;;;;3.35;1.13;;;21.60;80.50;;;20.31;62.84;100284.03;10307738;28;97824;-90
2023/09/01 18:41:03;;;;;;;1.90;1.35;;;21.50;81.20;;;20.15;63.84;100290.06;10290154;28;96782;-90
2023/09/01 18:46:06;;;;;;;5.13;1.90;;;21.30;81.90;;;19.94;64.29;100286.81;10280506;28;96810;-90
2023/09/01 18:51:12;;;;;;;2.63;1.70;;;21.10;82.50;;;19.88;64.97;100303.06;10281633;28;97459;-90
2023/09/01 18:56:20;;;;;;;4.68;3.10;;;21.10;83.00;;;19.80;66.01;100298.81;10289193;28;96908;-90
2023/09/01 19:01:28;;;;;;;5.05;2.42;;;21.00;83.60;;;19.69;67.12;100305.78;10286121;28;96757;-90
2023/09/01 19:06:32;;;;;;;3.72;2.53;;;20.90;84.50;;;19.60;67.56;100306.28;10273256;28;97096;-90
2023/09/01 19:11:37;;;;;;;4.00;1.80;;;20.80;85.00;;;19.47;68.86;100315.31;10295111;28;97411;-90
2023/09/01 19:16:41;;;;;;;1.90;1.33;;;20.80;85.70;;;19.23;70.39;100308.94;10317230;28;97486;-90
2023/09/01 19:21:45;;;;;;;2.88;1.50;;;20.50;86.70;;;19.07;71.80;100326.50;10302310;27;96983;-89
2023/09/01 19:26:49;;;;;;;2.17;1.20;;;20.20;88.00;;;18.87;72.24;100331.19;10349449;27;97382;-91
2023/09/01 19:31:56;;;;;;;1.70;1.40;;;20.00;89.00;;;18.74;73.43;100326.75;10288900;28;97319;-90
2023/09/01 19:37:00;;;;;;;2.03;1.33;;;19.80;89.80;;;18.67;73.23;100323.28;10305329;28;97478;-90
2023/09/01 19:42:05;;;;;;;2.38;1.40;;;19.70;89.80;;;18.69;73.00;100323.88;10295546;28;98267;-89
2023/09/01 19:47:19;;;;;;;3.92;2.40;;;19.80;89.80;;;18.67;73.12;100331.34;10306341;28;97546;-90
2023/09/01 19:52:22;;;;;;;2.17;1.67;;;19.80;90.00;;;18.63;73.38;100335.47;10295627;28;98239;-89
2023/09/01 19:57:26;;;;;;;5.78;4.28;;;19.70;90.10;;;18.55;73.59;100335.75;10302440;28;96789;-90
2023/09/01 20:02:32;;;;;;;3.67;2.53;;;19.70;90.20;;;18.43;74.02;100335.59;10277587;28;98785;-90
2023/09/01 20:07:37;;;;;;;4.32;2.90;;;19.60;90.40;;;18.37;74.48;100348.06;10292727;28;98261;-90
2023/09/01 20:12:40;;;;;;;4.22;2.40;;;19.50;90.60;;;18.28;74.92;100346.63;10298661;28;97573;-90
2023/09/01 20:17:44;;;;;;;2.40;1.90;;;19.40;90.80;;;18.21;75.27;100356.59;10305851;28;97419;-89
2023/09/01 20:22:48;;;;;;;4.65;2.03;;;19.30;91.00;;;18.14;75.48;100353.94;10313373;28;96626;-90
2023/09/01 20:27:53;;;;;;;2.25;1.60;;;19.20;91.10;;;18.09;75.10;100363.69;10291040;28;97396;-90
2023/09/01 20:32:57;;;;;;;2.75;1.73;;;19.20;91.20;;;17.97;76.26;100351.94;10287454;28;97573;-90
2023/09/01 20:38:01;;;;;;;3.97;1.80;;;19.20;91.50;;;17.87;77.04;100352.38;10303195;28;96626;-90
2023/09/01 20:43:04;;;;;;;1.67;1.25;;;19.10;91.70;;;17.77;77.04;100349.34;10294136;28;98019;-90
2023/09/01 20:48:08;;;;;;;2.03;1.60;;;18.90;91.90;;;17.73;78.08;100353.47;10300599;28;96697;-90
2023/09/01 20:53:13;;;;;;;2.45;1.50;;;18.90;92.10;;;17.65;78.21;100354.50;10315765;28;96572;-90
2023/09/01 20:58:17;;;;;;;1.63;1.35;;;18.80;92.20;;;17.63;78.42;100364.63;10283465;28;98269;-90